createdAt,value
2022-08-17T00:00:40.543Z,75.22
2022-08-17T00:05:48.668Z,74.64
2022-08-17T00:10:56.632Z,76.39
2022-08-17T00:16:04.698Z,77.21
2022-08-17T00:21:11.239Z,77.66
2022-08-17T00:26:19.596Z,78.88
2022-08-17T00:31:28.033Z,78.39
2022-08-17T00:36:36.926Z,77.64
2022-08-17T00:41:44.548Z,76.78
2022-08-17T00:46:51.737Z,77.02
2022-08-17T00:51:59.441Z,78.04
2022-08-17T00:57:07.048Z,77.31
2022-08-17T01:02:15.886Z,77.96
2022-08-17T01:07:23.434Z,78.44
2022-08-17T01:12:31.492Z,77.59
2022-08-17T01:17:38.812Z,76.64
2022-08-17T01:22:47.762Z,77.47
2022-08-17T01:37:06.309Z,78.99
2022-08-17T01:42:12.797Z,79.59
2022-08-17T01:47:22.329Z,79.48
2022-08-17T01:52:28.384Z,79.44
2022-08-17T01:57:36.216Z,79.89
2022-08-17T02:02:43.432Z,80.76
2022-08-17T02:07:50.570Z,81.72
2022-08-17T02:12:58.785Z,81.95
2022-08-17T02:18:06.306Z,82.17
2022-08-17T02:23:13.499Z,81.78
2022-08-17T02:28:21.128Z,82.2
2022-08-17T02:33:27.903Z,82.38
2022-08-17T02:38:36.895Z,82.52
2022-08-17T02:43:44.235Z,82.58
2022-08-17T02:48:52.341Z,83.04
2022-08-17T02:53:59.965Z,83.08001
2022-08-17T02:59:07.515Z,83.2
2022-08-17T03:04:14.359Z,83.59
2022-08-17T03:09:22.322Z,84.01999
2022-08-17T03:14:30.272Z,84.56
2022-08-17T03:19:37.321Z,84.2
2022-08-17T03:24:44.631Z,84.14001
2022-08-17T03:29:52.211Z,84.63
2022-08-17T03:35:00.167Z,84.62001
2022-08-17T03:40:07.291Z,84.88
2022-08-17T03:45:14.487Z,85.41
2022-08-17T03:50:22.871Z,85.31
2022-08-17T03:55:31.019Z,85.56
2022-08-17T04:00:37.335Z,85.7
2022-08-17T04:05:45.173Z,85.81
2022-08-17T04:10:54.045Z,85.78
2022-08-17T04:16:02.314Z,85.91001
2022-08-17T04:21:10.132Z,86.58999
2022-08-17T04:26:17.996Z,85.74
2022-08-17T04:31:25.637Z,85.28
2022-08-17T04:36:34.704Z,83.65001
2022-08-17T04:41:44.262Z,82.06
2022-08-17T04:46:51.690Z,79.03
2022-08-17T04:52:07.261Z,76.68
2022-08-17T04:57:15.384Z,75.61
2022-08-17T05:02:22.315Z,74.04
2022-08-17T05:07:29.486Z,74.52
2022-08-17T05:12:37.384Z,73.91
2022-08-17T05:17:44.771Z,74.28
2022-08-17T05:22:52.496Z,72.4
2022-08-17T05:27:59.610Z,70.7
2022-08-17T05:33:07.868Z,69.09
2022-08-17T05:38:15.858Z,70.32
2022-08-17T05:43:24.037Z,68.53
2022-08-17T05:48:38.086Z,68.08
2022-08-17T05:53:45.855Z,69.59
2022-08-17T05:58:54.063Z,67.44
2022-08-17T06:04:01.888Z,66.24
2022-08-17T06:09:09.188Z,64.94
2022-08-17T06:14:16.982Z,62.67
2022-08-17T06:19:23.934Z,63.54
2022-08-17T06:24:31.526Z,63.01
2022-08-17T06:29:38.145Z,61.39
2022-08-17T06:34:45.747Z,63.62
2022-08-17T06:39:53.779Z,64.57
2022-08-17T06:45:00.394Z,63.94
2022-08-17T06:50:07.618Z,63.22
2022-08-17T06:55:15.281Z,62.62
2022-08-17T07:00:22.883Z,61.51
2022-08-17T07:05:31.094Z,62.12
2022-08-17T07:15:40.968Z,64.84
2022-08-17T07:16:43.776Z,62.48
2022-08-17T07:21:49.867Z,62.5
2022-08-17T07:26:57.575Z,61.32
2022-08-17T07:32:06.524Z,60.97
2022-08-17T07:37:13.841Z,61.46
2022-08-17T07:42:22.814Z,60.53
2022-08-17T07:47:30.173Z,60.14
2022-08-17T07:52:37.933Z,59.24
2022-08-17T07:57:45.002Z,61.25
2022-08-17T08:02:53.338Z,61.01
2022-08-17T08:08:02.947Z,58.66
2022-08-17T08:13:11.184Z,56.88
2022-08-17T08:23:47.713Z,54.0
2022-08-17T08:28:55.879Z,52.92
2022-08-17T08:34:03.451Z,52.89
2022-08-17T08:39:12.736Z,53.64
2022-08-17T08:44:20.649Z,51.63
2022-08-17T08:49:28.880Z,52.28
2022-08-17T08:54:37.288Z,49.01
2022-08-17T08:59:45.821Z,47.32
2022-08-17T09:04:54.241Z,49.07
2022-08-17T09:10:01.902Z,46.54
2022-08-17T09:15:09.865Z,47.75
2022-08-17T09:20:16.894Z,48.06
2022-08-17T09:25:24.357Z,46.52
2022-08-17T09:30:32.111Z,45.18
2022-08-17T09:35:40.387Z,43.05
2022-08-17T09:40:48.196Z,43.4
2022-08-17T09:45:56.615Z,42.76
2022-08-17T09:51:04.798Z,44.02
2022-08-17T09:56:12.409Z,42.79
2022-08-17T10:01:20.287Z,41.57
2022-08-17T10:06:27.413Z,42.75
2022-08-17T10:11:35.583Z,41.73
2022-08-17T10:16:43.711Z,40.21
2022-08-17T10:21:52.157Z,41.67
2022-08-17T10:26:59.014Z,38.62
2022-08-17T10:32:06.140Z,43.22
2022-08-17T10:37:13.812Z,40.48
2022-08-17T10:42:22.159Z,43.81
2022-08-17T10:47:29.252Z,39.39
2022-08-17T10:52:38.077Z,40.77
2022-08-17T10:57:45.593Z,38.31
2022-08-17T11:02:54.935Z,37.13
2022-08-17T11:08:02.167Z,36.46
2022-08-17T11:13:09.738Z,37.36
2022-08-17T11:18:18.364Z,36.69
2022-08-17T11:23:26.302Z,36.15
2022-08-17T11:28:33.539Z,37.4
2022-08-17T11:33:41.566Z,38.93
2022-08-17T11:38:50.331Z,36.67
2022-08-17T11:43:58.296Z,35.13
2022-08-17T11:49:06.008Z,35.45
2022-08-17T11:54:14.618Z,33.26
2022-08-17T11:59:27.810Z,32.78
2022-08-17T12:04:34.408Z,33.75
2022-08-17T12:09:42.276Z,31.86
2022-08-17T12:14:48.719Z,32.06
2022-08-17T12:19:55.412Z,32.32
2022-08-17T12:25:02.495Z,32.86
2022-08-17T12:30:10.807Z,31.76
2022-08-17T12:35:17.678Z,31.4
2022-08-17T12:40:24.539Z,33.94
2022-08-17T12:45:32.057Z,30.86
2022-08-17T12:50:39.827Z,31.5
2022-08-17T12:55:46.260Z,30.1
2022-08-17T13:00:54.940Z,31.69
2022-08-17T13:06:01.864Z,30.37
2022-08-17T13:11:09.053Z,31.23
2022-08-17T13:16:16.928Z,29.05
2022-08-17T13:21:25.255Z,28.84
2022-08-17T13:26:33.548Z,28.54
2022-08-17T13:31:41.801Z,27.38
2022-08-17T13:36:49.633Z,28.1
2022-08-17T13:41:56.042Z,27.44
2022-08-17T13:47:03.918Z,29.98
2022-08-17T13:52:12.521Z,27.02
2022-08-17T13:57:20.243Z,26.7
2022-08-17T14:02:27.450Z,24.82
2022-08-17T14:07:34.326Z,24.0
2022-08-17T14:12:42.831Z,25.18
2022-08-17T14:17:50.532Z,29.66
2022-08-17T14:22:58.495Z,27.71
2022-08-17T14:28:05.352Z,26.45
2022-08-17T14:33:13.392Z,29.2
2022-08-17T14:38:22.121Z,27.52
2022-08-17T14:43:29.496Z,27.51
2022-08-17T14:48:36.744Z,30.38
2022-08-17T14:53:45.047Z,25.93
2022-08-17T14:58:52.779Z,29.13
2022-08-17T15:04:04.788Z,30.46
2022-08-17T15:09:12.506Z,30.79
2022-08-17T15:14:19.736Z,29.96
2022-08-17T15:19:27.951Z,29.94
2022-08-17T15:24:34.777Z,29.69
2022-08-17T15:29:42.722Z,28.76
2022-08-17T15:34:51.027Z,34.19
2022-08-17T15:39:58.923Z,31.08
2022-08-17T15:45:06.759Z,30.78
2022-08-17T15:50:19.663Z,31.83
2022-08-17T15:55:27.190Z,31.87
2022-08-17T16:00:34.566Z,32.89
2022-08-17T16:05:41.053Z,32.96
2022-08-17T16:10:49.853Z,33.92
2022-08-17T16:15:56.445Z,33.35
2022-08-17T16:21:04.453Z,33.5
2022-08-17T16:26:12.629Z,34.92
2022-08-17T16:31:21.270Z,34.94
2022-08-17T16:36:28.910Z,35.7
2022-08-17T16:41:37.710Z,37.11
2022-08-17T16:46:44.341Z,38.01
2022-08-17T16:51:52.538Z,37.66
2022-08-17T16:57:00.635Z,38.28
2022-08-17T17:02:08.562Z,38.04
2022-08-17T17:07:15.868Z,38.23
2022-08-17T17:12:23.685Z,38.17
2022-08-17T17:17:31.684Z,38.01
2022-08-17T17:22:39.506Z,37.47
2022-08-17T17:27:46.859Z,37.58
2022-08-17T17:32:54.657Z,37.34
2022-08-17T17:38:02.557Z,37.63
2022-08-17T17:43:09.701Z,39.59
2022-08-17T17:48:16.984Z,39.89
2022-08-17T17:53:25.042Z,40.64
2022-08-17T17:58:32.509Z,40.02
2022-08-17T18:03:40.183Z,41.81
2022-08-17T18:08:47.561Z,42.95
2022-08-17T18:13:55.689Z,43.74
2022-08-17T18:19:03.293Z,44.67
2022-08-17T18:24:10.458Z,45.78
2022-08-17T18:29:17.750Z,46.76
2022-08-17T18:34:24.587Z,47.48
2022-08-17T18:39:33.280Z,48.39
2022-08-17T18:44:40.702Z,49.01
2022-08-17T18:49:48.192Z,49.41
2022-08-17T18:54:56.721Z,50.11
2022-08-17T19:00:10.785Z,50.73
2022-08-17T19:05:17.773Z,51.22
2022-08-17T19:10:24.896Z,51.96
2022-08-17T19:15:31.444Z,52.52
2022-08-17T19:20:38.660Z,53.54
2022-08-17T19:25:46.898Z,53.8
2022-08-17T19:30:53.697Z,54.56
2022-08-17T19:36:01.443Z,55.77
2022-08-17T19:41:10.197Z,55.49
2022-08-17T19:46:17.406Z,55.56
2022-08-17T19:51:26.761Z,56.36
2022-08-17T19:56:34.183Z,56.7
2022-08-17T20:01:42.615Z,57.43
2022-08-17T20:06:52.557Z,57.83
2022-08-17T20:12:00.183Z,58.3
2022-08-17T20:17:06.813Z,58.96
2022-08-17T20:22:14.013Z,59.11
2022-08-17T20:27:22.693Z,59.7
2022-08-17T20:32:30.619Z,60.03
2022-08-17T20:37:37.602Z,60.62
2022-08-17T20:42:45.047Z,60.92
2022-08-17T20:47:53.104Z,60.78
2022-08-17T20:53:01.053Z,60.08
2022-08-17T20:58:09.313Z,59.25
2022-08-17T21:03:16.091Z,59.07
2022-08-17T21:08:23.893Z,59.3
2022-08-17T21:13:31.770Z,59.69
2022-08-17T21:18:39.404Z,60.95
2022-08-17T21:23:47.486Z,61.39
2022-08-17T21:28:54.649Z,62.18
2022-08-17T21:34:01.856Z,63.03
2022-08-17T21:39:09.926Z,63.86
2022-08-17T21:44:19.915Z,63.98
2022-08-17T21:49:26.655Z,64.57
2022-08-17T21:54:33.859Z,65.25
2022-08-17T21:59:41.706Z,65.52
2022-08-17T22:04:49.996Z,65.98001
2022-08-17T22:09:58.170Z,66.14
2022-08-17T22:15:05.957Z,66.21
2022-08-17T22:20:14.008Z,66.96
2022-08-17T22:25:22.544Z,66.98
2022-08-17T22:30:29.373Z,67.06
2022-08-17T22:35:37.019Z,67.34
2022-08-17T22:40:45.385Z,67.59
2022-08-17T22:45:53.738Z,67.98
2022-08-17T22:51:01.940Z,68.2
2022-08-17T22:56:09.217Z,68.38
2022-08-17T23:01:16.415Z,68.48001
2022-08-17T23:06:23.413Z,68.7
2022-08-17T23:11:31.993Z,68.78
2022-08-17T23:16:40.577Z,69.17
2022-08-17T23:21:48.077Z,69.57
2022-08-17T23:26:55.857Z,70.44
2022-08-17T23:32:04.261Z,70.21
2022-08-17T23:37:11.340Z,70.52
2022-08-17T23:42:19.706Z,70.84
2022-08-17T23:47:27.821Z,71.22
2022-08-17T23:52:35.856Z,71.32
2022-08-17T23:57:44.133Z,71.67
